createdAt,value
2022-11-24T00:00:12.817Z,100394.06
2022-11-24T00:00:43.243Z,100392.59
2022-11-24T00:01:13.697Z,100394.11
2022-11-24T00:01:44.112Z,100392.64
2022-11-24T00:02:14.617Z,100393.31
2022-11-24T00:02:45.157Z,100395.47
2022-11-24T00:03:15.726Z,100394.65
2022-11-24T00:03:46.125Z,100398.30
2022-11-24T00:04:16.545Z,100394.61
2022-11-24T00:04:46.966Z,100397.91
2022-11-24T00:05:17.388Z,100397.91
2022-11-24T00:05:47.809Z,100397.75
2022-11-24T00:06:18.248Z,100396.45
2022-11-24T00:06:48.669Z,100390.95
2022-11-24T00:07:19.165Z,100392.30
2022-11-24T00:07:49.657Z,100392.64
2022-11-24T00:08:20.138Z,100389.61
2022-11-24T00:08:50.562Z,100387.91
2022-11-24T00:09:20.985Z,100388.73
2022-11-24T00:09:51.405Z,100387.39
2022-11-24T00:10:21.836Z,100385.41
2022-11-24T00:10:52.279Z,100389.58
2022-11-24T00:11:22.702Z,100389.55
2022-11-24T00:11:53.126Z,100387.03
2022-11-24T00:12:23.557Z,100385.23
2022-11-24T00:12:53.989Z,100390.58
2022-11-24T00:13:24.409Z,100389.28
2022-11-24T00:13:54.837Z,100391.08
2022-11-24T00:14:25.255Z,100391.08
2022-11-24T00:14:55.677Z,100391.25
2022-11-24T00:15:26.100Z,100391.75
2022-11-24T00:15:56.536Z,100392.47
2022-11-24T00:16:27.037Z,100392.25
2022-11-24T00:16:57.469Z,100396.11
2022-11-24T00:17:27.877Z,100394.27
2022-11-24T00:17:58.298Z,100395.11
2022-11-24T00:18:28.727Z,100396.96
2022-11-24T00:18:59.177Z,100394.98
2022-11-24T00:19:29.570Z,100394.98
2022-11-24T00:19:59.992Z,100393.16
2022-11-24T00:20:30.414Z,100394.31
2022-11-24T00:21:00.832Z,100393.16
2022-11-24T00:21:31.278Z,100396.11
2022-11-24T00:22:01.707Z,100392.97
2022-11-24T00:22:32.134Z,100393.64
2022-11-24T00:23:02.567Z,100395.09
2022-11-24T00:23:32.994Z,100390.62
2022-11-24T00:24:03.413Z,100395.95
2022-11-24T00:24:34.230Z,100396.12
2022-11-24T00:25:04.794Z,100394.14
2022-11-24T00:25:35.214Z,100395.83
2022-11-24T00:26:05.658Z,100395.78
2022-11-24T00:26:36.097Z,100397.34
2022-11-24T00:27:06.509Z,100398.52
2022-11-24T00:27:36.932Z,100397.16
2022-11-24T00:28:07.353Z,100396.80
2022-11-24T00:28:37.784Z,100395.95
2022-11-24T00:29:08.206Z,100394.81
2022-11-24T00:29:38.633Z,100395.16
2022-11-24T00:30:09.070Z,100393.98
2022-11-24T00:30:39.512Z,100394.98
2022-11-24T00:31:15.372Z,100393.81
2022-11-24T00:31:45.331Z,100393.48
2022-11-24T00:32:15.754Z,100392.81
2022-11-24T00:32:46.175Z,100393.10
2022-11-24T00:33:16.597Z,100394.61
2022-11-24T00:33:47.027Z,100394.95
2022-11-24T00:34:17.450Z,100395.27
2022-11-24T00:34:47.873Z,100394.80
2022-11-24T00:35:18.300Z,100395.11
2022-11-24T00:35:48.721Z,100393.31
2022-11-24T00:36:19.142Z,100395.50
2022-11-24T00:36:49.586Z,100396.45
2022-11-24T00:37:20.008Z,100392.80
2022-11-24T00:37:50.432Z,100392.63
2022-11-24T00:38:20.858Z,100399.14
2022-11-24T00:38:51.281Z,100393.27
2022-11-24T00:39:21.712Z,100393.14
2022-11-24T00:39:52.131Z,100391.12
2022-11-24T00:40:22.553Z,100394.00
2022-11-24T00:40:52.980Z,100390.14
2022-11-24T00:41:23.415Z,100388.77
2022-11-24T00:41:53.836Z,100388.77
2022-11-24T00:42:24.260Z,100389.28
2022-11-24T00:42:54.684Z,100388.60
2022-11-24T00:43:25.109Z,100389.11
2022-11-24T00:43:55.534Z,100385.42
2022-11-24T00:44:25.958Z,100386.55
2022-11-24T00:44:56.381Z,100386.27
2022-11-24T00:45:26.802Z,100390.92
2022-11-24T00:45:57.331Z,100390.25
2022-11-24T00:46:28.066Z,100384.75
2022-11-24T00:46:58.673Z,100388.60
2022-11-24T00:47:29.145Z,100389.74
2022-11-24T00:47:59.568Z,100389.45
2022-11-24T00:48:29.989Z,100388.78
2022-11-24T00:49:00.516Z,100390.44
2022-11-24T00:49:30.907Z,100388.23
2022-11-24T00:50:01.328Z,100390.86
2022-11-24T00:50:31.769Z,100391.75
2022-11-24T00:51:02.194Z,100387.72
2022-11-24T00:51:32.618Z,100390.41
2022-11-24T00:52:03.297Z,100390.41
2022-11-24T00:52:33.720Z,100391.59
2022-11-24T00:53:04.149Z,100390.41
2022-11-24T00:53:34.570Z,100390.58
2022-11-24T00:54:04.984Z,100390.75
2022-11-24T00:54:35.609Z,100394.56
2022-11-24T00:55:06.135Z,100389.41
2022-11-24T00:55:36.552Z,100388.55
2022-11-24T00:56:06.974Z,100387.56
2022-11-24T00:56:37.416Z,100390.39
2022-11-24T00:57:07.921Z,100387.73
2022-11-24T00:57:38.338Z,100387.56
2022-11-24T00:58:08.762Z,100389.05
2022-11-24T00:58:39.183Z,100385.88
2022-11-24T00:59:09.627Z,100387.52
2022-11-24T00:59:40.048Z,100387.87
2022-11-24T01:00:10.472Z,100389.05
2022-11-24T01:00:40.893Z,100386.51
2022-11-24T01:01:11.397Z,100385.83
2022-11-24T01:01:42.057Z,100389.36
2022-11-24T01:02:12.848Z,100386.84
2022-11-24T01:02:43.312Z,100387.17
2022-11-24T01:03:13.690Z,100386.05
2022-11-24T01:03:44.118Z,100387.17
2022-11-24T01:04:14.536Z,100388.56
2022-11-24T01:04:44.960Z,100391.09
2022-11-24T01:05:15.392Z,100390.92
2022-11-24T01:05:45.815Z,100392.09
2022-11-24T01:06:16.239Z,100400.77
2022-11-24T01:06:46.674Z,100400.48
2022-11-24T01:07:17.165Z,100402.31
2022-11-24T01:07:47.634Z,100399.65
2022-11-24T01:08:18.020Z,100403.48
2022-11-24T01:08:48.448Z,100405.30
2022-11-24T01:09:18.863Z,100406.16
2022-11-24T01:09:49.286Z,100398.09
2022-11-24T01:10:19.706Z,100395.92
2022-11-24T01:10:50.148Z,100397.92
2022-11-24T01:11:20.562Z,100394.25
2022-11-24T01:11:51.009Z,100393.60
2022-11-24T01:12:21.508Z,100393.44
2022-11-24T01:12:51.930Z,100394.61
2022-11-24T01:13:22.352Z,100395.11
2022-11-24T01:13:52.773Z,100398.14
2022-11-24T01:14:23.233Z,100394.48
2022-11-24T01:14:53.624Z,100397.31
2022-11-24T01:15:24.060Z,100395.66
2022-11-24T01:15:54.559Z,100396.34
2022-11-24T01:16:25.072Z,100396.83
2022-11-24T01:16:55.485Z,100400.66
2022-11-24T01:17:26.016Z,100400.82
2022-11-24T01:17:56.445Z,100402.16
2022-11-24T01:18:26.857Z,100401.33
2022-11-24T01:18:57.279Z,100401.03
2022-11-24T01:19:27.712Z,100402.71
2022-11-24T01:19:58.139Z,100404.39
2022-11-24T01:20:28.561Z,100410.55
2022-11-24T01:20:58.982Z,100413.08
2022-11-24T01:21:29.404Z,100410.10
2022-11-24T01:21:59.838Z,100415.09
2022-11-24T01:22:30.273Z,100411.73
2022-11-24T01:23:00.693Z,100413.80
2022-11-24T01:23:31.116Z,100416.89
2022-11-24T01:24:01.542Z,100413.92
2022-11-24T01:24:32.293Z,100414.42
2022-11-24T01:25:02.841Z,100417.73
2022-11-24T01:25:33.265Z,100414.59
2022-11-24T01:26:03.693Z,100417.89
2022-11-24T01:26:34.115Z,100409.23
2022-11-24T01:27:04.556Z,100411.71
2022-11-24T01:27:34.981Z,100412.23
2022-11-24T01:28:05.398Z,100411.38
2022-11-24T01:28:35.831Z,100406.56
2022-11-24T01:29:06.258Z,100403.88
2022-11-24T01:29:36.684Z,100402.56
2022-11-24T01:30:07.118Z,100403.55
2022-11-24T01:30:37.560Z,100403.67
2022-11-24T01:31:08.000Z,100399.86
2022-11-24T01:31:38.370Z,100404.52
2022-11-24T01:32:08.795Z,100399.69
2022-11-24T01:32:39.379Z,100400.14
2022-11-24T01:33:09.802Z,100399.52
2022-11-24T01:33:40.224Z,100398.52
2022-11-24T01:34:10.646Z,100392.80
2022-11-24T01:34:41.077Z,100395.34
2022-11-24T01:35:11.500Z,100396.66
2022-11-24T01:35:41.920Z,100396.68
2022-11-24T01:36:12.342Z,100396.17
2022-11-24T01:36:42.766Z,100390.97
2022-11-24T01:37:13.186Z,100392.65
2022-11-24T01:37:43.713Z,100394.19
2022-11-24T01:38:14.136Z,100396.17
2022-11-24T01:38:44.556Z,100395.20
2022-11-24T01:39:14.985Z,100394.50
2022-11-24T01:39:45.401Z,100395.32
2022-11-24T01:40:15.847Z,100396.03
2022-11-24T01:40:46.268Z,100397.36
2022-11-24T01:41:16.695Z,100399.53
2022-11-24T01:41:47.120Z,100397.21
2022-11-24T01:42:17.560Z,100396.68
2022-11-24T01:42:48.067Z,100399.03
2022-11-24T01:43:18.486Z,100401.55
2022-11-24T01:43:48.913Z,100402.39
2022-11-24T01:44:19.343Z,100402.55
2022-11-24T01:44:49.772Z,100406.06
2022-11-24T01:45:20.205Z,100405.06
2022-11-24T01:45:50.663Z,100409.42
2022-11-24T01:46:21.117Z,100404.73
2022-11-24T01:46:51.549Z,100405.91
2022-11-24T01:47:21.968Z,100403.78
2022-11-24T01:47:52.412Z,100403.06
2022-11-24T01:48:27.135Z,100402.89
2022-11-24T01:48:57.889Z,100404.94
2022-11-24T01:49:28.314Z,100408.45
2022-11-24T01:49:58.738Z,100408.80
2022-11-24T01:50:29.159Z,100413.64
2022-11-24T01:50:59.581Z,100414.48
2022-11-24T01:51:30.002Z,100416.32
2022-11-24T01:52:00.425Z,100413.33
2022-11-24T01:52:30.845Z,100419.39
2022-11-24T01:53:01.468Z,100418.55
2022-11-24T01:53:31.901Z,100422.20
2022-11-24T01:54:02.319Z,100422.53
2022-11-24T01:54:33.000Z,100421.53
2022-11-24T01:55:03.566Z,100425.20
2022-11-24T01:55:33.991Z,100424.87
2022-11-24T01:56:04.411Z,100421.36
2022-11-24T01:56:34.836Z,100423.52
2022-11-24T01:57:05.254Z,100425.52
2022-11-24T01:57:35.697Z,100422.69
2022-11-24T01:58:06.259Z,100419.52
2022-11-24T01:58:36.680Z,100419.52
2022-11-24T01:59:07.101Z,100421.70
2022-11-24T01:59:37.529Z,100424.44
2022-11-24T02:00:07.954Z,100428.08
2022-11-24T02:00:38.371Z,100423.71
2022-11-24T02:01:08.880Z,100423.06
2022-11-24T02:01:39.448Z,100425.91
2022-11-24T02:02:09.961Z,100423.88
2022-11-24T02:02:40.409Z,100422.05
2022-11-24T02:03:10.969Z,100423.88
2022-11-24T02:03:41.386Z,100423.52
2022-11-24T02:04:11.815Z,100426.41
2022-11-24T02:04:42.237Z,100425.54
2022-11-24T02:05:12.662Z,100429.26
2022-11-24T02:05:43.085Z,100426.55
2022-11-24T02:06:13.508Z,100430.58
2022-11-24T02:06:43.935Z,100427.89
2022-11-24T02:07:14.429Z,100434.56
2022-11-24T02:07:44.936Z,100431.25
2022-11-24T02:08:15.354Z,100425.88
2022-11-24T02:08:45.778Z,100428.23
2022-11-24T02:09:16.202Z,100426.05
2022-11-24T02:09:46.621Z,100430.44
2022-11-24T02:10:17.076Z,100433.09
2022-11-24T02:10:47.501Z,100437.30
2022-11-24T02:11:17.920Z,100433.12
2022-11-24T02:11:48.343Z,100434.47
2022-11-24T02:12:18.761Z,100436.62
2022-11-24T02:12:49.202Z,100434.80
2022-11-24T02:13:19.775Z,100435.78
2022-11-24T02:13:50.203Z,100433.28
2022-11-24T02:14:20.619Z,100433.78
2022-11-24T02:14:51.041Z,100433.09
2022-11-24T02:15:21.465Z,100431.95
2022-11-24T02:15:51.922Z,100435.12
2022-11-24T02:16:22.365Z,100440.45
2022-11-24T02:16:52.751Z,100440.46
2022-11-24T02:17:23.180Z,100439.47
2022-11-24T02:17:53.599Z,100436.47
2022-11-24T02:18:24.117Z,100437.47
2022-11-24T02:18:54.540Z,100441.66
2022-11-24T02:19:24.962Z,100437.36
2022-11-24T02:20:00.276Z,100435.80
2022-11-24T02:20:30.707Z,100433.95
2022-11-24T02:21:01.125Z,100436.12
2022-11-24T02:21:31.545Z,100429.92
2022-11-24T02:22:01.980Z,100432.61
2022-11-24T02:22:32.409Z,100432.61
2022-11-24T02:23:02.835Z,100435.46
2022-11-24T02:23:33.272Z,100431.43
2022-11-24T02:24:03.696Z,100434.77
2022-11-24T02:24:34.467Z,100432.94
2022-11-24T02:25:04.976Z,100427.73
2022-11-24T02:25:35.399Z,100433.96
2022-11-24T02:26:05.822Z,100433.45
2022-11-24T02:26:36.243Z,100434.27
2022-11-24T02:27:06.673Z,100431.61
2022-11-24T02:27:37.092Z,100436.62
2022-11-24T02:28:07.537Z,100432.42
2022-11-24T02:28:38.155Z,100430.91
2022-11-24T02:29:08.588Z,100431.60
2022-11-24T02:29:39.007Z,100432.61
2022-11-24T02:30:09.430Z,100431.77
2022-11-24T02:30:39.912Z,100430.60
2022-11-24T02:31:10.406Z,100430.60
2022-11-24T02:31:40.796Z,100432.47
2022-11-24T02:32:11.219Z,100432.12
2022-11-24T02:32:41.636Z,100433.45
2022-11-24T02:33:12.056Z,100430.59
2022-11-24T02:33:42.496Z,100432.27
2022-11-24T02:34:12.928Z,100435.12
2022-11-24T02:34:43.351Z,100434.44
2022-11-24T02:35:13.783Z,100435.75
2022-11-24T02:35:44.203Z,100434.61
2022-11-24T02:36:14.626Z,100435.91
2022-11-24T02:36:45.049Z,100437.12
2022-11-24T02:37:15.472Z,100438.16
2022-11-24T02:37:45.908Z,100437.66
2022-11-24T02:38:16.345Z,100435.68
2022-11-24T02:38:46.979Z,100436.66
2022-11-24T02:39:17.400Z,100438.98
2022-11-24T02:39:47.823Z,100438.31
2022-11-24T02:40:18.244Z,100438.81
2022-11-24T02:40:48.664Z,100439.55
2022-11-24T02:41:19.094Z,100441.84
2022-11-24T02:41:49.527Z,100444.70
2022-11-24T02:42:19.944Z,100445.56
2022-11-24T02:42:50.366Z,100446.87
2022-11-24T02:43:20.811Z,100448.73
2022-11-24T02:43:51.232Z,100448.06
2022-11-24T02:44:21.657Z,100449.56
2022-11-24T02:44:52.077Z,100448.05
2022-11-24T02:45:22.509Z,100443.19
2022-11-24T02:45:53.054Z,100443.19
2022-11-24T02:46:23.489Z,100444.19
2022-11-24T02:46:53.895Z,100442.84
2022-11-24T02:47:24.317Z,100443.52
2022-11-24T02:47:54.738Z,100444.19
2022-11-24T02:48:25.157Z,100440.16
2022-11-24T02:48:55.597Z,100440.52
2022-11-24T02:49:26.023Z,100444.53
2022-11-24T02:49:56.446Z,100436.66
2022-11-24T02:50:26.867Z,100443.53
2022-11-24T02:50:57.292Z,100438.20
2022-11-24T02:51:27.711Z,100440.17
2022-11-24T02:51:58.133Z,100440.67
2022-11-24T02:52:28.554Z,100441.34
2022-11-24T02:52:58.975Z,100445.20
2022-11-24T02:53:29.396Z,100441.16
2022-11-24T02:53:59.834Z,100436.97
2022-11-24T02:54:30.260Z,100434.84
2022-11-24T02:55:00.686Z,100439.48
2022-11-24T02:55:31.113Z,100438.49
2022-11-24T02:56:01.542Z,100435.30
2022-11-24T02:56:31.969Z,100431.96
2022-11-24T02:57:02.391Z,100436.64
2022-11-24T02:57:32.815Z,100432.97
2022-11-24T02:58:03.253Z,100434.12
2022-11-24T02:58:33.697Z,100432.28
2022-11-24T02:59:04.195Z,100435.62
2022-11-24T02:59:34.623Z,100433.66
2022-11-24T03:00:05.067Z,100430.64
2022-11-24T03:00:35.469Z,100432.14
2022-11-24T03:01:05.945Z,100431.12
2022-11-24T03:01:36.414Z,100434.95
2022-11-24T03:02:06.789Z,100435.01
2022-11-24T03:02:37.277Z,100429.59
2022-11-24T03:03:07.725Z,100434.00
2022-11-24T03:03:38.123Z,100435.68
2022-11-24T03:04:08.998Z,100438.01
2022-11-24T03:04:39.424Z,100436.47
2022-11-24T03:05:09.844Z,100435.84
2022-11-24T03:05:40.276Z,100432.65
2022-11-24T03:06:10.707Z,100440.33
2022-11-24T03:06:41.127Z,100436.02
2022-11-24T03:07:11.631Z,100438.86
2022-11-24T03:07:42.112Z,100437.71
2022-11-24T03:08:12.525Z,100439.87
2022-11-24T03:08:42.960Z,100438.39
2022-11-24T03:09:13.485Z,100439.42
2022-11-24T03:09:43.911Z,100445.08
2022-11-24T03:10:14.336Z,100443.94
2022-11-24T03:10:44.755Z,100442.72
2022-11-24T03:11:15.177Z,100444.09
2022-11-24T03:11:45.596Z,100442.61
2022-11-24T03:12:16.026Z,100441.38
2022-11-24T03:12:46.461Z,100441.05
2022-11-24T03:13:16.886Z,100441.22
2022-11-24T03:13:47.328Z,100442.20
2022-11-24T03:14:17.905Z,100442.20
2022-11-24T03:14:48.328Z,100441.39
2022-11-24T03:15:18.752Z,100443.06
2022-11-24T03:15:49.300Z,100442.37
2022-11-24T03:16:19.792Z,100444.58
2022-11-24T03:16:50.170Z,100443.41
2022-11-24T03:17:20.598Z,100442.24
2022-11-24T03:17:51.013Z,100444.05
2022-11-24T03:18:21.435Z,100442.75
2022-11-24T03:18:51.855Z,100441.25
2022-11-24T03:19:22.447Z,100440.92
2022-11-24T03:19:52.862Z,100442.61
2022-11-24T03:20:23.291Z,100443.23
2022-11-24T03:20:53.711Z,100440.58
2022-11-24T03:21:24.138Z,100437.91
2022-11-24T03:21:54.563Z,100441.91
2022-11-24T03:22:24.982Z,100442.72
2022-11-24T03:22:55.403Z,100442.24
2022-11-24T03:23:25.840Z,100444.73
2022-11-24T03:23:56.258Z,100443.06
2022-11-24T03:24:26.708Z,100445.74
2022-11-24T03:24:57.130Z,100449.94
2022-11-24T03:25:27.563Z,100452.66
2022-11-24T03:25:57.983Z,100456.52
2022-11-24T03:26:28.420Z,100460.86
2022-11-24T03:26:58.839Z,100462.70
2022-11-24T03:27:29.267Z,100466.38
2022-11-24T03:27:59.693Z,100465.06
2022-11-24T03:28:30.116Z,100464.21
2022-11-24T03:29:00.559Z,100462.87
2022-11-24T03:29:31.121Z,100455.34
2022-11-24T03:30:01.545Z,100457.21
2022-11-24T03:30:31.975Z,100457.72
2022-11-24T03:31:02.429Z,100460.23
2022-11-24T03:31:32.870Z,100465.56
2022-11-24T03:32:03.323Z,100469.25
2022-11-24T03:32:33.733Z,100466.25
2022-11-24T03:33:04.158Z,100468.09
2022-11-24T03:33:34.580Z,100469.25
2022-11-24T03:34:05.003Z,100462.20
2022-11-24T03:34:35.972Z,100463.90
2022-11-24T03:35:06.477Z,100459.90
2022-11-24T03:35:36.913Z,100463.91
2022-11-24T03:36:07.332Z,100467.23
2022-11-24T03:36:37.755Z,100469.42
2022-11-24T03:37:08.176Z,100471.09
2022-11-24T03:37:38.598Z,100466.59
2022-11-24T03:38:09.021Z,100468.59
2022-11-24T03:38:39.467Z,100466.38
2022-11-24T03:39:09.884Z,100465.58
2022-11-24T03:39:40.332Z,100465.24
2022-11-24T03:40:10.763Z,100467.59
2022-11-24T03:40:41.186Z,100467.91
2022-11-24T03:41:11.622Z,100466.59
2022-11-24T03:41:42.050Z,100460.53
2022-11-24T03:42:12.472Z,100459.17
2022-11-24T03:42:42.893Z,100458.01
2022-11-24T03:43:13.323Z,100458.01
2022-11-24T03:43:44.448Z,100458.00
2022-11-24T03:44:14.873Z,100456.00
2022-11-24T03:44:45.297Z,100456.32
2022-11-24T03:45:44.706Z,100455.02
2022-11-24T03:45:51.049Z,100456.70
2022-11-24T03:46:21.581Z,100454.33
2022-11-24T03:46:52.016Z,100454.02
2022-11-24T03:47:22.431Z,100455.17
2022-11-24T03:47:52.854Z,100453.33
2022-11-24T03:48:23.274Z,100454.81
2022-11-24T03:48:53.696Z,100456.00
2022-11-24T03:49:24.125Z,100456.52
2022-11-24T03:49:54.637Z,100457.66
2022-11-24T03:50:25.057Z,100459.00
2022-11-24T03:50:55.478Z,100463.39
2022-11-24T03:51:25.903Z,100464.23
2022-11-24T03:51:56.320Z,100467.42
2022-11-24T03:52:26.759Z,100471.09
2022-11-24T03:52:57.185Z,100469.92
2022-11-24T03:53:27.608Z,100466.73
2022-11-24T03:53:58.028Z,100464.39
2022-11-24T03:54:28.447Z,100467.41
2022-11-24T03:54:59.039Z,100467.08
2022-11-24T03:55:29.464Z,100468.89
2022-11-24T03:55:59.886Z,100469.76
2022-11-24T03:56:30.312Z,100465.73
2022-11-24T03:57:00.731Z,100473.06
2022-11-24T03:57:31.163Z,100469.11
2022-11-24T03:58:01.585Z,100475.30
2022-11-24T03:58:32.022Z,100475.80
2022-11-24T03:59:02.444Z,100478.34
2022-11-24T03:59:32.891Z,100475.31
2022-11-24T04:00:03.388Z,100479.70
2022-11-24T04:00:33.814Z,100482.67
2022-11-24T04:01:04.246Z,100482.03
2022-11-24T04:01:34.719Z,100485.20
2022-11-24T04:02:05.234Z,100489.56
2022-11-24T04:02:35.712Z,100490.07
2022-11-24T04:03:06.266Z,100488.70
2022-11-24T04:03:36.666Z,100487.55
2022-11-24T04:04:07.086Z,100486.88
2022-11-24T04:04:37.513Z,100488.90
2022-11-24T04:05:08.049Z,100488.05
2022-11-24T04:05:38.478Z,100491.20
2022-11-24T04:06:08.897Z,100489.73
2022-11-24T04:06:39.395Z,100491.08
2022-11-24T04:07:09.886Z,100486.39
2022-11-24T04:07:40.356Z,100489.42
2022-11-24T04:08:10.763Z,100492.27
2022-11-24T04:08:41.203Z,100492.94
2022-11-24T04:09:11.622Z,100493.77
2022-11-24T04:09:42.047Z,100491.75
2022-11-24T04:10:12.498Z,100495.12
2022-11-24T04:10:42.922Z,100492.62
2022-11-24T04:11:13.340Z,100492.44
2022-11-24T04:11:43.772Z,100489.27
2022-11-24T04:12:14.200Z,100490.28
2022-11-24T04:12:44.626Z,100486.41
2022-11-24T04:13:15.047Z,100492.10
2022-11-24T04:13:45.474Z,100490.12
2022-11-24T04:14:15.896Z,100487.42
2022-11-24T04:14:46.335Z,100489.59
2022-11-24T04:15:16.903Z,100489.25
2022-11-24T04:15:47.399Z,100489.60
2022-11-24T04:16:17.904Z,100489.56
2022-11-24T04:16:48.297Z,100488.24
2022-11-24T04:17:18.731Z,100488.91
2022-11-24T04:17:49.149Z,100490.42
2022-11-24T04:18:19.706Z,100488.41
2022-11-24T04:18:50.125Z,100486.08
2022-11-24T04:19:20.546Z,100485.89
2022-11-24T04:19:50.970Z,100488.90
2022-11-24T04:20:21.492Z,100488.39
2022-11-24T04:20:51.911Z,100490.24
2022-11-24T04:21:22.332Z,100485.36
2022-11-24T04:21:52.761Z,100486.72
2022-11-24T04:22:23.185Z,100487.23
2022-11-24T04:22:53.619Z,100483.71
2022-11-24T04:23:24.039Z,100485.03
2022-11-24T04:23:54.462Z,100482.88
2022-11-24T04:24:24.884Z,100483.52
2022-11-24T04:24:55.348Z,100482.35
2022-11-24T04:25:25.797Z,100477.86
2022-11-24T04:25:56.224Z,100477.18
2022-11-24T04:26:26.642Z,100480.02
2022-11-24T04:26:57.063Z,100477.30
2022-11-24T04:27:27.507Z,100479.15
2022-11-24T04:27:57.921Z,100479.83
2022-11-24T04:28:28.343Z,100477.98
2022-11-24T04:28:58.763Z,100482.84
2022-11-24T04:29:29.189Z,100476.47
2022-11-24T04:29:59.635Z,100477.48
2022-11-24T04:30:30.054Z,100475.31
2022-11-24T04:31:00.534Z,100475.98
2022-11-24T04:31:30.992Z,100473.31
2022-11-24T04:32:01.419Z,100477.19
2022-11-24T04:32:31.849Z,100474.34
2022-11-24T04:33:02.286Z,100475.00
2022-11-24T04:33:32.705Z,100474.03
2022-11-24T04:34:03.132Z,100477.40
2022-11-24T04:34:33.866Z,100479.41
2022-11-24T04:35:04.315Z,100475.55
2022-11-24T04:35:34.755Z,100482.09
2022-11-24T04:36:05.306Z,100485.09
2022-11-24T04:36:35.728Z,100486.97
2022-11-24T04:37:06.154Z,100489.27
2022-11-24T04:37:36.587Z,100489.44
2022-11-24T04:38:07.009Z,100495.66
2022-11-24T04:39:22.852Z,100495.48
2022-11-24T04:39:24.541Z,100499.12
2022-11-24T04:39:48.077Z,100503.86
2022-11-24T04:40:18.523Z,100505.56
2022-11-24T04:40:48.945Z,100506.70
2022-11-24T04:41:19.367Z,100505.39
2022-11-24T04:41:49.787Z,100507.55
2022-11-24T04:42:20.235Z,100507.23
2022-11-24T04:42:50.646Z,100506.39
2022-11-24T04:43:21.064Z,100508.41
2022-11-24T04:43:51.489Z,100508.62
2022-11-24T04:44:21.910Z,100509.12
2022-11-24T04:44:52.335Z,100513.95
2022-11-24T04:45:22.780Z,100513.12
2022-11-24T04:45:53.194Z,100512.09
2022-11-24T04:46:23.710Z,100510.42
2022-11-24T04:46:54.210Z,100507.42
2022-11-24T04:47:24.620Z,100509.75
2022-11-24T04:47:55.043Z,100509.58
2022-11-24T04:48:25.465Z,100511.31
2022-11-24T04:48:55.897Z,100513.47
2022-11-24T04:49:26.327Z,100514.83
2022-11-24T04:49:56.763Z,100514.47
2022-11-24T04:50:27.183Z,100515.84
2022-11-24T04:50:57.733Z,100515.80
2022-11-24T04:51:28.169Z,100513.11
2022-11-24T04:51:58.599Z,100514.80
2022-11-24T04:52:29.032Z,100517.31
2022-11-24T04:52:59.455Z,100520.66
2022-11-24T04:53:29.877Z,100519.20
2022-11-24T04:54:00.298Z,100525.53
2022-11-24T04:54:30.805Z,100526.53
2022-11-24T04:55:01.233Z,100528.38
2022-11-24T04:55:31.655Z,100527.73
2022-11-24T04:56:02.175Z,100531.58
2022-11-24T04:56:32.605Z,100530.23
2022-11-24T04:57:03.040Z,100529.91
2022-11-24T04:57:33.473Z,100531.07
2022-11-24T04:58:03.895Z,100535.44
2022-11-24T04:58:34.327Z,100533.92
2022-11-24T04:59:08.170Z,100539.46
2022-11-24T04:59:38.895Z,100535.60
2022-11-24T05:00:09.343Z,100537.83
2022-11-24T05:00:39.777Z,100538.14
2022-11-24T05:01:10.297Z,100534.31
2022-11-24T05:01:40.847Z,100539.00
2022-11-24T05:02:11.302Z,100540.52
2022-11-24T05:02:41.712Z,100541.19
2022-11-24T05:03:12.132Z,100545.34
2022-11-24T05:03:42.555Z,100545.00
2022-11-24T05:04:13.041Z,100542.70
2022-11-24T05:04:43.529Z,100544.33
2022-11-24T05:05:13.923Z,100541.81
2022-11-24T05:05:44.354Z,100544.66
2022-11-24T05:06:14.817Z,100540.86
2022-11-24T05:06:45.238Z,100541.77
2022-11-24T05:07:18.772Z,100538.95
2022-11-24T05:07:49.813Z,100540.13
2022-11-24T05:08:20.201Z,100539.30
2022-11-24T05:08:50.648Z,100536.78
2022-11-24T05:09:21.062Z,100534.59
2022-11-24T05:09:59.306Z,100538.97
2022-11-24T05:10:26.805Z,100539.30
2022-11-24T05:10:57.228Z,100536.11
2022-11-24T05:11:27.748Z,100539.98
2022-11-24T05:11:58.168Z,100539.12
2022-11-24T05:12:28.592Z,100538.47
2022-11-24T05:12:59.030Z,100542.13
2022-11-24T05:13:29.455Z,100543.14
2022-11-24T05:13:59.886Z,100542.66
2022-11-24T05:14:30.306Z,100540.77
2022-11-24T05:15:00.736Z,100544.47
2022-11-24T05:15:31.148Z,100548.68
2022-11-24T05:16:01.754Z,100545.34
2022-11-24T05:16:32.369Z,100543.32
2022-11-24T05:17:02.798Z,100548.17
2022-11-24T05:17:33.218Z,100546.02
2022-11-24T05:18:03.653Z,100547.69
2022-11-24T05:18:34.076Z,100547.19
2022-11-24T05:19:04.496Z,100547.35
2022-11-24T05:19:34.949Z,100548.88
2022-11-24T05:20:05.371Z,100547.52
2022-11-24T05:20:35.794Z,100550.03
2022-11-24T05:21:06.211Z,100546.52
2022-11-24T05:21:36.730Z,100548.19
2022-11-24T05:22:07.151Z,100549.05
2022-11-24T05:22:37.573Z,100549.38
2022-11-24T05:23:08.008Z,100547.86
2022-11-24T05:23:38.430Z,100550.20
2022-11-24T05:24:08.863Z,100550.38
2022-11-24T05:24:39.281Z,100546.01
2022-11-24T05:25:09.708Z,100551.07
2022-11-24T05:25:44.884Z,100550.88
2022-11-24T05:26:15.449Z,100552.90
2022-11-24T05:26:45.895Z,100555.25
2022-11-24T05:27:16.321Z,100552.10
2022-11-24T05:27:46.737Z,100554.73
2022-11-24T05:28:17.160Z,100557.24
2022-11-24T05:28:47.581Z,100556.92
2022-11-24T05:29:18.009Z,100558.08
2022-11-24T05:29:48.429Z,100558.43
2022-11-24T05:30:18.853Z,100558.94
2022-11-24T05:30:49.271Z,100553.75
2022-11-24T05:31:19.764Z,100557.77
2022-11-24T05:31:50.270Z,100557.44
2022-11-24T05:32:20.691Z,100557.64
2022-11-24T05:32:51.122Z,100556.78
2022-11-24T05:33:21.544Z,100556.93
2022-11-24T05:33:51.976Z,100559.44
2022-11-24T05:34:22.415Z,100561.79
2022-11-24T05:34:52.834Z,100559.48
2022-11-24T05:35:23.257Z,100560.30
2022-11-24T05:35:53.683Z,100565.82
2022-11-24T05:36:24.107Z,100566.31
2022-11-24T05:36:54.760Z,100566.14
2022-11-24T05:37:25.172Z,100563.12
2022-11-24T05:37:55.595Z,100565.47
2022-11-24T05:38:26.033Z,100565.14
2022-11-24T05:38:56.448Z,100565.65
2022-11-24T05:39:26.869Z,100565.99
2022-11-24T05:39:57.296Z,100566.67
2022-11-24T05:40:27.720Z,100565.36
2022-11-24T05:40:58.140Z,100569.37
2022-11-24T05:41:28.567Z,100570.17
2022-11-24T05:41:59.087Z,100570.18
2022-11-24T05:42:29.506Z,100568.67
2022-11-24T05:42:59.930Z,100572.73
2022-11-24T05:43:30.359Z,100570.04
2022-11-24T05:44:00.789Z,100569.34
2022-11-24T05:44:31.325Z,100569.88
2022-11-24T05:45:01.788Z,100572.70
2022-11-24T05:45:32.220Z,100569.73
2022-11-24T05:46:02.637Z,100568.70
2022-11-24T05:46:33.155Z,100567.05
2022-11-24T05:47:03.630Z,100569.20
2022-11-24T05:47:34.030Z,100565.00
2022-11-24T05:48:04.449Z,100565.53